createdAt,value
2018-12-15T00:01:04.609Z,15.13
2018-12-15T00:03:33.965Z,15.37
2018-12-15T00:06:02.726Z,14.83
2018-12-15T00:08:31.711Z,14.93
2018-12-15T00:11:00.836Z,14.17
2018-12-15T00:13:29.662Z,14.10
2018-12-15T00:16:00.198Z,14.87
2018-12-15T00:18:30.347Z,14.13
2018-12-15T00:20:59.184Z,14.60
2018-12-15T00:23:28.583Z,14.30
2018-12-15T00:25:57.138Z,14.47
2018-12-15T00:28:26.940Z,14.17
2018-12-15T00:30:56.306Z,15.13
2018-12-15T00:33:25.398Z,14.17
2018-12-15T00:35:54.197Z,14.43
2018-12-15T00:38:22.962Z,14.13
2018-12-15T00:40:52.041Z,14.63
2018-12-15T00:43:22.611Z,14.00
2018-12-15T00:45:51.693Z,13.50
2018-12-15T00:48:20.482Z,13.67
2018-12-15T00:50:49.414Z,13.87
2018-12-15T00:53:18.134Z,13.80
2018-12-15T00:55:47.805Z,13.17
2018-12-15T00:58:17.408Z,13.17
2018-12-15T01:00:46.270Z,13.47
2018-12-15T01:03:15.115Z,14.13
2018-12-15T01:05:44.278Z,13.43
2018-12-15T01:08:13.300Z,13.77
2018-12-15T01:10:42.296Z,13.03
2018-12-15T01:13:11.492Z,13.43
2018-12-15T01:15:45.533Z,13.57
2018-12-15T01:18:14.669Z,13.70
2018-12-15T01:20:43.477Z,13.67
2018-12-15T01:23:12.249Z,14.13
2018-12-15T01:25:42.446Z,14.13
2018-12-15T01:28:12.454Z,14.63
2018-12-15T01:30:44.072Z,14.17
2018-12-15T01:33:12.797Z,13.63
2018-12-15T01:35:41.653Z,13.50
2018-12-15T01:38:10.428Z,14.43
2018-12-15T01:40:38.825Z,14.40
2018-12-15T01:43:08.237Z,14.37
2018-12-15T01:45:37.275Z,13.93
2018-12-15T01:48:05.959Z,13.90
2018-12-15T01:50:34.668Z,14.07
2018-12-15T01:53:03.430Z,13.93
2018-12-15T01:55:32.215Z,15.33
2018-12-15T01:58:01.530Z,14.17
2018-12-15T02:00:30.407Z,13.47
2018-12-15T02:03:04.361Z,13.60
2018-12-15T02:05:34.592Z,13.70
2018-12-15T02:08:04.228Z,14.00
2018-12-15T02:10:32.939Z,14.70
2018-12-15T02:13:01.798Z,14.13
2018-12-15T02:15:32.130Z,14.17
2018-12-15T02:18:00.565Z,14.00
2018-12-15T02:20:28.994Z,13.40
2018-12-15T02:22:58.491Z,13.70
2018-12-15T02:25:28.193Z,13.80
2018-12-15T02:27:57.316Z,13.87
2018-12-15T02:30:26.432Z,12.83
2018-12-15T02:32:59.313Z,13.53
2018-12-15T02:35:28.179Z,13.93
2018-12-15T02:37:56.979Z,14.23
2018-12-15T02:40:26.625Z,13.97
2018-12-15T02:42:55.375Z,13.43
2018-12-15T02:45:25.657Z,13.43
2018-12-15T02:47:54.395Z,14.17
2018-12-15T02:50:23.263Z,13.87
2018-12-15T02:52:52.463Z,14.27
2018-12-15T02:55:23.407Z,14.13
2018-12-15T02:57:53.956Z,14.00
2018-12-15T03:00:24.052Z,14.37
2018-12-15T03:02:52.910Z,14.10
2018-12-15T03:05:23.114Z,14.07
2018-12-15T03:07:57.337Z,13.50
2018-12-15T03:10:29.727Z,13.97
2018-12-15T03:12:59.139Z,13.53
2018-12-15T03:15:29.464Z,13.57
2018-12-15T03:17:58.563Z,14.40
2018-12-15T03:20:28.572Z,13.83
2018-12-15T03:22:57.672Z,13.80
2018-12-15T03:25:26.418Z,13.60
2018-12-15T03:27:54.877Z,14.47
2018-12-15T03:30:25.698Z,14.97
2018-12-15T03:32:54.486Z,14.07
2018-12-15T03:35:23.854Z,13.83
2018-12-15T03:37:52.787Z,14.40
2018-12-15T03:40:21.274Z,13.70
2018-12-15T03:42:50.143Z,13.70
2018-12-15T03:45:18.964Z,14.27
2018-12-15T03:47:47.984Z,14.87
2018-12-15T03:50:16.686Z,14.57
2018-12-15T03:52:46.607Z,13.80
2018-12-15T03:55:15.486Z,14.30
2018-12-15T03:57:44.374Z,15.07
2018-12-15T04:00:14.023Z,14.50
2018-12-15T04:02:43.763Z,14.13
2018-12-15T04:05:12.893Z,15.30
2018-12-15T04:07:41.788Z,15.37
2018-12-15T04:10:10.711Z,15.90
2018-12-15T04:12:39.574Z,15.13
2018-12-15T04:15:08.450Z,15.80
2018-12-15T04:17:49.456Z,15.83
2018-12-15T04:20:20.872Z,15.57
2018-12-15T04:22:50.139Z,16.77
2018-12-15T04:25:21.287Z,17.07
2018-12-15T04:27:50.177Z,16.00
2018-12-15T04:30:21.531Z,16.57
2018-12-15T04:32:51.511Z,17.33
2018-12-15T04:35:19.951Z,17.60
2018-12-15T04:37:48.698Z,16.90
2018-12-15T04:40:18.687Z,16.73
2018-12-15T04:42:53.108Z,17.70
2018-12-15T04:45:21.957Z,18.37
2018-12-15T04:47:51.967Z,18.90
2018-12-15T04:50:21.190Z,18.53
2018-12-15T04:52:50.057Z,18.23
2018-12-15T04:55:18.601Z,18.17
2018-12-15T04:57:47.033Z,18.73
2018-12-15T05:00:15.856Z,18.57
2018-12-15T05:02:45.801Z,19.47
2018-12-15T05:05:15.669Z,17.50
2018-12-15T05:07:44.386Z,18.63
2018-12-15T05:10:13.997Z,18.60
2018-12-15T05:12:42.916Z,20.17
2018-12-15T05:15:11.710Z,19.40
2018-12-15T05:17:40.424Z,18.87
2018-12-15T05:20:09.722Z,19.33
2018-12-15T05:22:38.981Z,20.43
2018-12-15T05:25:07.934Z,21.40
2018-12-15T05:27:36.617Z,21.10
2018-12-15T05:30:06.941Z,21.37
2018-12-15T05:32:35.705Z,21.10
2018-12-15T05:35:05.011Z,20.60
2018-12-15T05:37:33.831Z,21.37
2018-12-15T05:40:02.369Z,21.43
2018-12-15T05:42:31.363Z,20.93
2018-12-15T05:45:00.164Z,20.73
2018-12-15T05:47:28.917Z,20.70
2018-12-15T05:49:59.680Z,21.20
2018-12-15T05:52:28.405Z,21.87
2018-12-15T05:54:57.477Z,22.50
2018-12-15T05:57:25.919Z,22.17
2018-12-15T05:59:54.431Z,22.13
2018-12-15T06:02:23.694Z,21.73
2018-12-15T06:04:54.537Z,22.67
2018-12-15T06:07:23.313Z,21.87
2018-12-15T06:09:52.049Z,23.77
2018-12-15T06:12:20.922Z,24.30
2018-12-15T06:14:49.402Z,22.43
2018-12-15T06:17:18.312Z,22.67
2018-12-15T06:19:47.083Z,22.87
2018-12-15T06:22:15.941Z,22.73
2018-12-15T06:24:44.649Z,23.13
2018-12-15T06:27:13.333Z,22.87
2018-12-15T06:29:42.621Z,23.93
2018-12-15T06:32:11.385Z,23.03
2018-12-15T06:34:40.122Z,24.17
2018-12-15T06:37:09.216Z,23.33
2018-12-15T06:39:38.444Z,24.00
2018-12-15T06:42:07.374Z,23.00
2018-12-15T06:44:36.388Z,24.07
2018-12-15T06:47:04.858Z,23.47
2018-12-15T06:49:34.346Z,23.90
2018-12-15T06:52:03.083Z,23.90
2018-12-15T06:54:31.798Z,24.30
2018-12-15T06:57:00.829Z,23.90
2018-12-15T06:59:29.649Z,24.57
2018-12-15T07:01:58.136Z,24.47
2018-12-15T07:04:26.975Z,23.83
2018-12-15T07:06:56.357Z,26.40
2018-12-15T07:09:25.212Z,23.73
2018-12-15T07:11:56.992Z,25.67
2018-12-15T07:14:25.802Z,24.30
2018-12-15T07:16:54.308Z,24.73
2018-12-15T07:19:24.028Z,23.93
2018-12-15T07:21:52.864Z,24.90
2018-12-15T07:24:21.473Z,24.83
2018-12-15T07:26:50.853Z,26.73
2018-12-15T07:29:20.550Z,25.30
2018-12-15T07:31:49.603Z,25.03
2018-12-15T07:34:18.519Z,24.50
2018-12-15T07:36:54.126Z,25.50
2018-12-15T07:39:23.362Z,24.67
2018-12-15T07:41:55.637Z,25.70
2018-12-15T07:44:37.755Z,24.37
2018-12-15T07:47:07.254Z,24.27
2018-12-15T07:49:37.002Z,27.30
2018-12-15T07:52:07.706Z,24.03
2018-12-15T07:54:37.028Z,26.63
2018-12-15T07:57:06.641Z,26.33
2018-12-15T07:59:39.031Z,25.93
2018-12-15T08:02:07.764Z,26.30
2018-12-15T08:04:37.032Z,26.30
2018-12-15T08:07:06.289Z,25.80
2018-12-15T08:09:37.238Z,27.27
2018-12-15T08:12:12.774Z,25.63
2018-12-15T08:14:44.770Z,26.27
2018-12-15T08:17:14.782Z,25.50
2018-12-15T08:19:45.156Z,24.53
2018-12-15T08:22:14.012Z,26.70
2018-12-15T08:24:44.058Z,27.60
2018-12-15T08:27:13.543Z,26.30
2018-12-15T08:29:44.290Z,26.53
2018-12-15T08:32:13.327Z,26.77
2018-12-15T08:34:42.326Z,25.93
2018-12-15T08:37:10.830Z,26.83
2018-12-15T08:39:39.629Z,25.83
2018-12-15T08:42:09.582Z,25.73
2018-12-15T08:44:38.463Z,25.80
2018-12-15T08:47:07.741Z,25.80
2018-12-15T08:49:37.595Z,26.00
2018-12-15T08:52:10.970Z,24.50
2018-12-15T08:54:41.578Z,25.20
2018-12-15T08:57:25.356Z,26.30
2018-12-15T08:59:57.309Z,25.90
2018-12-15T09:02:34.396Z,25.10
2018-12-15T09:05:03.963Z,26.67
2018-12-15T09:07:34.134Z,25.93
2018-12-15T09:10:03.250Z,25.00
2018-12-15T09:12:33.742Z,25.50
2018-12-15T09:15:02.770Z,24.37
2018-12-15T09:17:32.240Z,25.67
2018-12-15T09:20:01.353Z,24.40
2018-12-15T09:22:30.991Z,25.10
2018-12-15T09:25:01.379Z,25.37
2018-12-15T09:27:31.108Z,24.00
2018-12-15T09:30:00.330Z,25.57
2018-12-15T09:32:29.746Z,23.40
2018-12-15T09:35:00.182Z,22.97
2018-12-15T09:37:30.988Z,22.83
2018-12-15T09:39:59.482Z,23.40
2018-12-15T09:42:29.233Z,22.67
2018-12-15T09:44:59.381Z,22.77
2018-12-15T09:47:27.311Z,22.37
2018-12-15T09:49:58.670Z,21.30
2018-12-15T09:55:01.531Z,21.00
2018-12-15T09:57:29.456Z,21.67
2018-12-15T09:59:57.819Z,21.40
2018-12-15T10:02:25.687Z,22.07
2018-12-15T10:04:53.500Z,22.10
2018-12-15T10:07:21.688Z,22.33
2018-12-15T10:09:49.533Z,22.83
2018-12-15T10:12:17.391Z,21.93
2018-12-15T10:14:46.379Z,20.30
2018-12-15T10:17:14.200Z,20.27
2018-12-15T10:19:42.295Z,19.67
2018-12-15T10:22:10.613Z,19.17
2018-12-15T10:24:38.539Z,19.37
2018-12-15T10:27:06.352Z,21.93
2018-12-15T10:29:40.032Z,25.37
2018-12-15T10:32:13.343Z,19.73
2018-12-15T10:34:41.371Z,21.20
2018-12-15T10:37:09.642Z,18.53
2018-12-15T10:39:37.713Z,19.40
2018-12-15T10:42:06.006Z,18.63
2018-12-15T10:44:33.866Z,18.53
2018-12-15T10:47:01.754Z,19.43
2018-12-15T10:49:30.845Z,18.33
2018-12-15T10:51:59.302Z,19.17
2018-12-15T10:54:27.141Z,17.87
2018-12-15T10:56:55.501Z,18.83
2018-12-15T10:59:23.582Z,17.27
2018-12-15T11:01:51.443Z,17.67
2018-12-15T11:04:19.854Z,17.37
2018-12-15T11:06:47.716Z,17.63
2018-12-15T11:09:15.527Z,16.93
2018-12-15T11:11:43.671Z,17.30
2018-12-15T11:14:11.736Z,17.00
2018-12-15T11:16:39.705Z,17.93
2018-12-15T11:19:07.968Z,16.47
2018-12-15T11:21:36.134Z,15.80
2018-12-15T11:24:04.110Z,15.43
2018-12-15T11:26:32.559Z,14.00
2018-12-15T11:29:00.767Z,14.63
2018-12-15T11:31:28.627Z,14.97
2018-12-15T11:33:56.715Z,13.67
2018-12-15T11:36:24.578Z,15.03
2018-12-15T11:38:52.842Z,14.63
2018-12-15T11:41:20.675Z,17.13
2018-12-15T11:43:48.805Z,15.13
2018-12-15T11:46:17.258Z,13.23
2018-12-15T11:48:45.529Z,13.27
2018-12-15T11:51:13.382Z,12.63
2018-12-15T11:53:41.349Z,13.23
2018-12-15T11:56:09.307Z,12.23
2018-12-15T11:58:37.846Z,11.97
2018-12-15T12:01:06.085Z,12.30
2018-12-15T12:03:33.973Z,11.80
2018-12-15T12:06:02.395Z,11.20
2018-12-15T12:08:30.256Z,10.63
2018-12-15T12:10:58.604Z,11.40
2018-12-15T12:13:26.966Z,11.07
2018-12-15T12:15:54.818Z,10.37
2018-12-15T12:18:22.887Z,10.33
2018-12-15T12:20:51.368Z,10.47
2018-12-15T12:23:19.196Z,10.93
2018-12-15T12:25:47.024Z,10.03
2018-12-15T12:28:15.224Z,10.30
2018-12-15T12:30:43.236Z,10.03
2018-12-15T12:33:11.251Z,10.63
2018-12-15T12:35:39.347Z,10.97
2018-12-15T12:38:07.663Z,10.00
2018-12-15T12:40:35.763Z,9.60
2018-12-15T12:43:04.090Z,8.97
2018-12-15T12:45:32.581Z,9.27
2018-12-15T12:48:01.267Z,10.20
2018-12-15T12:50:29.622Z,9.70
2018-12-15T12:52:57.834Z,10.73
2018-12-15T12:55:25.887Z,10.00
2018-12-15T12:57:53.949Z,11.00
2018-12-15T13:00:22.060Z,8.13
2018-12-15T13:02:49.911Z,7.47
2018-12-15T13:05:18.142Z,9.17
2018-12-15T13:07:46.442Z,8.17
2018-12-15T13:10:14.325Z,7.60
2018-12-15T13:12:42.148Z,6.40
2018-12-15T13:15:10.451Z,6.70
2018-12-15T13:17:38.727Z,6.67
2018-12-15T13:20:06.980Z,6.70
2018-12-15T13:22:35.387Z,6.47
2018-12-15T13:25:03.299Z,6.83
2018-12-15T13:27:31.517Z,7.10
2018-12-15T13:29:59.556Z,8.07
2018-12-15T13:32:27.559Z,8.13
2018-12-15T13:34:56.040Z,7.57
2018-12-15T13:37:24.316Z,7.40
2018-12-15T13:39:52.588Z,7.73
2018-12-15T13:42:20.867Z,8.10
2018-12-15T13:44:48.883Z,8.13
2018-12-15T13:47:17.032Z,7.97
2018-12-15T13:49:45.993Z,8.10
2018-12-15T13:52:13.839Z,7.20
2018-12-15T13:54:42.141Z,7.73
2018-12-15T13:57:10.977Z,7.47
2018-12-15T13:59:38.790Z,7.70
2018-12-15T14:02:07.078Z,7.87
2018-12-15T14:04:37.028Z,8.30
2018-12-15T14:07:04.843Z,7.23
2018-12-15T14:09:32.671Z,7.93
2018-12-15T14:12:00.931Z,8.10
2018-12-15T14:14:28.937Z,7.70
2018-12-15T14:16:56.810Z,8.63
2018-12-15T14:19:24.936Z,8.33
2018-12-15T14:21:53.156Z,7.60
2018-12-15T14:24:21.131Z,7.90
2018-12-15T14:26:49.406Z,7.90
2018-12-15T14:29:17.679Z,7.90
2018-12-15T14:31:45.751Z,8.70
2018-12-15T14:34:13.861Z,9.63
2018-12-15T14:36:41.932Z,9.87
2018-12-15T14:39:09.828Z,9.57
2018-12-15T14:41:37.677Z,8.53
2018-12-15T14:44:06.235Z,8.73
2018-12-15T14:46:34.359Z,7.97
2018-12-15T14:49:02.232Z,8.67
2018-12-15T14:51:30.408Z,8.57
2018-12-15T14:53:58.664Z,8.43
2018-12-15T14:56:26.562Z,8.60
2018-12-15T14:58:54.834Z,8.03
2018-12-15T15:01:22.809Z,9.30
2018-12-15T15:03:50.923Z,9.23
2018-12-15T15:06:19.144Z,9.23
2018-12-15T15:08:47.110Z,8.90
2018-12-15T15:11:15.181Z,10.37
2018-12-15T15:13:43.661Z,10.10
2018-12-15T15:16:13.119Z,10.10
2018-12-15T15:18:40.959Z,9.67
2018-12-15T15:21:09.168Z,10.10
2018-12-15T15:23:37.079Z,9.40
2018-12-15T15:26:04.954Z,10.03
2018-12-15T15:28:33.210Z,8.90
2018-12-15T15:31:01.091Z,8.93
2018-12-15T15:33:29.704Z,9.43
2018-12-15T15:35:57.712Z,8.93
2018-12-15T15:38:25.901Z,9.30
2018-12-15T15:40:54.097Z,9.40
2018-12-15T15:43:22.246Z,9.77
2018-12-15T15:45:50.114Z,9.40
2018-12-15T15:48:19.422Z,10.00
2018-12-15T15:50:47.246Z,9.90
2018-12-15T15:53:15.150Z,10.17
2018-12-15T15:55:43.628Z,10.30
2018-12-15T15:58:11.912Z,10.13
2018-12-15T16:00:40.068Z,10.07
2018-12-15T16:03:08.358Z,10.67
2018-12-15T16:05:36.381Z,10.70
2018-12-15T16:08:04.794Z,10.57
2018-12-15T16:10:33.482Z,10.03
2018-12-15T16:13:01.357Z,11.50
2018-12-15T16:15:29.225Z,11.43
2018-12-15T16:17:59.124Z,9.97
2018-12-15T16:20:28.632Z,10.83
2018-12-15T16:22:56.752Z,10.87
2018-12-15T16:25:26.209Z,11.20
2018-12-15T16:27:55.297Z,10.87
2018-12-15T16:30:23.365Z,11.23
2018-12-15T16:32:51.638Z,11.10
2018-12-15T16:35:20.127Z,10.80
2018-12-15T16:37:47.995Z,11.83
2018-12-15T16:40:16.261Z,12.23
2018-12-15T16:42:46.720Z,11.67
2018-12-15T16:45:15.041Z,12.03
2018-12-15T16:47:43.110Z,12.27
2018-12-15T16:50:11.421Z,12.53
2018-12-15T16:52:40.715Z,12.40
2018-12-15T16:55:08.988Z,12.60
2018-12-15T16:57:36.853Z,12.40
2018-12-15T17:00:07.588Z,12.90
2018-12-15T17:02:35.840Z,12.60
2018-12-15T17:05:05.155Z,11.77
2018-12-15T17:07:33.224Z,12.53
2018-12-15T17:10:04.137Z,12.47
2018-12-15T17:12:32.130Z,12.70
2018-12-15T17:15:01.027Z,13.27
2018-12-15T17:17:28.875Z,13.07
2018-12-15T17:19:58.328Z,14.20
2018-12-15T17:22:26.337Z,13.70
2018-12-15T17:24:54.474Z,13.43
2018-12-15T17:27:28.938Z,14.17
2018-12-15T17:29:57.106Z,13.37
2018-12-15T17:32:24.990Z,14.37
2018-12-15T17:34:53.612Z,14.43
2018-12-15T17:37:22.128Z,14.30
2018-12-15T17:39:51.233Z,14.77
2018-12-15T17:42:19.318Z,14.33
2018-12-15T17:44:47.192Z,14.10
2018-12-15T17:47:16.797Z,13.60
2018-12-15T17:49:44.864Z,13.87
2018-12-15T17:52:14.144Z,14.13
2018-12-15T17:54:42.002Z,13.90
2018-12-15T17:57:09.853Z,27.10
2018-12-15T17:59:38.228Z,14.37
2018-12-15T18:02:06.106Z,13.27
2018-12-15T18:04:33.966Z,13.10
2018-12-15T18:07:02.085Z,14.00
2018-12-15T18:09:30.143Z,14.37
2018-12-15T18:11:58.621Z,13.47
2018-12-15T18:14:26.659Z,13.50
2018-12-15T18:16:55.143Z,13.23
2018-12-15T18:19:23.755Z,12.77
2018-12-15T18:21:51.730Z,13.23
2018-12-15T18:24:20.410Z,16.87
2018-12-15T18:26:49.042Z,12.23
2018-12-15T18:29:17.793Z,13.23
2018-12-15T18:31:46.541Z,13.10
2018-12-15T18:34:16.295Z,14.17
2018-12-15T18:36:45.027Z,12.60
2018-12-15T18:39:15.101Z,13.03
2018-12-15T18:41:46.686Z,12.97
2018-12-15T18:44:17.411Z,12.40
2018-12-15T18:46:47.085Z,13.00
2018-12-15T18:49:15.549Z,11.03
2018-12-15T18:51:44.621Z,11.03
2018-12-15T18:54:15.250Z,12.27
2018-12-15T18:56:43.453Z,12.07
2018-12-15T18:59:11.968Z,11.83
2018-12-15T19:01:40.486Z,12.10
2018-12-15T19:04:08.889Z,12.73
2018-12-15T19:06:37.220Z,13.30
2018-12-15T19:09:07.697Z,12.07
2018-12-15T19:11:37.198Z,11.23
2018-12-15T19:14:08.567Z,11.53
2018-12-15T19:16:37.399Z,12.07
2018-12-15T19:19:05.951Z,12.00
2018-12-15T19:21:33.830Z,12.50
2018-12-15T19:24:02.051Z,12.30
2018-12-15T19:26:30.133Z,11.80
2018-12-15T19:28:57.992Z,11.70
2018-12-15T19:31:25.841Z,11.47
2018-12-15T19:33:54.337Z,10.63
2018-12-15T19:36:22.186Z,12.27
2018-12-15T19:38:50.052Z,14.03
2018-12-15T19:41:18.206Z,10.67
2018-12-15T19:43:47.643Z,10.17
2018-12-15T19:46:15.489Z,9.30
2018-12-15T19:48:43.329Z,8.67
2018-12-15T19:51:11.493Z,8.47
2018-12-15T19:53:39.642Z,9.33
2018-12-15T19:56:09.900Z,9.07
2018-12-15T19:58:37.984Z,9.60
2018-12-15T20:01:10.176Z,8.70
2018-12-15T20:03:38.404Z,8.40
2018-12-15T20:06:08.162Z,8.90
2018-12-15T20:08:36.003Z,8.50
2018-12-15T20:11:05.125Z,8.40
2018-12-15T20:13:33.599Z,7.97
2018-12-15T20:16:01.771Z,7.83
2018-12-15T20:18:29.844Z,8.47
2018-12-15T20:20:58.146Z,7.97
2018-12-15T20:23:26.785Z,8.23
2018-12-15T20:25:55.246Z,7.87
2018-12-15T20:28:23.573Z,6.67
2018-12-15T20:30:51.932Z,8.30
2018-12-15T20:33:19.781Z,7.80
2018-12-15T20:35:47.660Z,8.00
2018-12-15T20:38:16.823Z,7.97
2018-12-15T20:40:45.242Z,7.77
2018-12-15T20:43:13.495Z,8.70
2018-12-15T20:45:42.116Z,8.73
2018-12-15T20:48:13.279Z,8.27
2018-12-15T20:50:42.976Z,8.00
2018-12-15T20:53:12.240Z,8.07
2018-12-15T20:55:41.396Z,9.03
2018-12-15T20:58:09.313Z,7.90
2018-12-15T21:00:37.734Z,7.80
2018-12-15T21:03:06.127Z,8.67
2018-12-15T21:05:36.732Z,8.20
2018-12-15T21:08:10.053Z,8.60
2018-12-15T21:10:40.365Z,9.00
2018-12-15T21:13:09.596Z,9.40
2018-12-15T21:15:40.129Z,8.90
2018-12-15T21:18:09.177Z,9.73
2018-12-15T21:20:37.327Z,9.87
2018-12-15T21:23:05.521Z,9.73
2018-12-15T21:25:33.395Z,8.90
2018-12-15T21:28:03.939Z,8.93
2018-12-15T21:30:32.788Z,9.23
2018-12-15T21:33:03.252Z,9.77
2018-12-15T21:35:32.554Z,10.43
2018-12-15T21:38:01.238Z,9.77
2018-12-15T21:40:30.282Z,9.13
2018-12-15T21:42:59.390Z,8.67
2018-12-15T21:45:27.570Z,9.70
2018-12-15T21:47:57.856Z,9.30
2018-12-15T21:50:25.830Z,10.70
2018-12-15T21:52:54.103Z,9.67
2018-12-15T21:55:28.535Z,9.90
2018-12-15T21:57:57.323Z,9.60
2018-12-15T22:00:25.819Z,9.83
2018-12-15T22:02:56.044Z,9.93
2018-12-15T22:08:44.994Z,10.40
2018-12-15T22:11:13.464Z,10.40
2018-12-15T22:13:41.336Z,10.93
2018-12-15T22:16:09.607Z,11.30
2018-12-15T22:18:37.681Z,10.13
2018-12-15T22:21:05.589Z,11.47
2018-12-15T22:23:34.118Z,11.20
2018-12-15T22:26:02.279Z,12.10
2018-12-15T22:28:30.371Z,11.07
2018-12-15T22:30:58.414Z,12.37
2018-12-15T22:33:26.779Z,11.43
2018-12-15T22:35:55.599Z,11.77
2018-12-15T22:38:23.934Z,11.30
2018-12-15T22:40:51.787Z,11.83
2018-12-15T22:43:21.545Z,16.87
2018-12-15T22:45:49.436Z,12.07
2018-12-15T22:48:18.059Z,11.90
2018-12-15T22:50:48.166Z,13.13
2018-12-15T22:53:17.354Z,13.17
2018-12-15T22:55:45.285Z,14.10
2018-12-15T22:58:14.570Z,14.07
2018-12-15T23:00:49.813Z,13.20
2018-12-15T23:03:17.686Z,13.77
2018-12-15T23:05:47.039Z,14.00
2018-12-15T23:08:15.133Z,14.17
2018-12-15T23:10:43.422Z,14.20
2018-12-15T23:13:11.837Z,14.70
2018-12-15T23:15:39.941Z,14.70
2018-12-15T23:18:08.311Z,14.67
2018-12-15T23:20:36.782Z,15.60
2018-12-15T23:23:05.033Z,16.00
2018-12-15T23:25:32.881Z,15.40
2018-12-15T23:28:00.749Z,15.53
2018-12-15T23:30:28.817Z,17.33
2018-12-15T23:32:56.888Z,17.37
2018-12-15T23:35:25.369Z,18.53
2018-12-15T23:37:53.458Z,17.90
2018-12-15T23:40:21.330Z,17.47
2018-12-15T23:42:49.786Z,17.30
2018-12-15T23:45:18.060Z,18.57
2018-12-15T23:47:45.942Z,19.93
2018-12-15T23:50:14.056Z,18.67
2018-12-15T23:52:42.062Z,18.63
2018-12-15T23:55:10.439Z,18.17
2018-12-15T23:57:38.576Z,19.03
